Time;durP1;ratioP1;P1;durP2;ratioP2;P2;SDS_P1;SDS_P2;PMS_P1;PMS_P2;Temp;Humidity;BMP_temperature;BMP_pressure;BME280_temperature;BME280_humidity;BME280_pressure;Samples;Min_cycle;Max_cycle;Signal;HPM_P1;HPM_P2
2021/03/20 00:02:19;;;;;;;8.70;7.50;;;;;;;;;;4973896;28;20279;-77
2021/03/20 00:04:45;;;;;;;8.60;6.80;;;;;;;;;;4973543;28;20658;-77
2021/03/20 00:07:11;;;;;;;8.50;5.97;;;;;;;;;;4974070;28;20891;-77
2021/03/20 00:09:37;;;;;;;8.88;7.10;;;;;;;;;;4973708;28;20422;-77
2021/03/20 00:12:04;;;;;;;7.80;6.40;;;;;;;;;;4974047;28;20605;-77
2021/03/20 00:14:30;;;;;;;8.48;6.80;;;;;;;;;;4973936;28;20708;-77
2021/03/20 00:16:56;;;;;;;7.43;6.63;;;;;;;;;;4973719;28;20194;-77
2021/03/20 00:19:22;;;;;;;7.40;6.55;;;;;;;;;;4973772;28;20204;-77
2021/03/20 00:21:49;;;;;;;8.70;6.90;;;;;;;;;;4972689;28;20271;-78
2021/03/20 00:24:15;;;;;;;9.63;6.35;;;;;;;;;;4972866;28;20187;-79
2021/03/20 00:26:42;;;;;;;8.27;5.88;;;;;;;;;;4973764;28;20569;-79
2021/03/20 00:29:08;;;;;;;7.57;6.78;;;;;;;;;;4973840;28;20179;-77
2021/03/20 00:31:34;;;;;;;8.52;7.68;;;;;;;;;;4974040;28;20206;-79
2021/03/20 00:34:01;;;;;;;7.63;6.70;;;;;;;;;;4973662;28;20207;-78
2021/03/20 00:36:27;;;;;;;7.95;6.75;;;;;;;;;;4973478;28;20224;-78
2021/03/20 00:38:53;;;;;;;9.75;7.60;;;;;;;;;;4973837;28;20227;-78
2021/03/20 00:41:19;;;;;;;7.88;6.75;;;;;;;;;;4973758;28;20241;-79
2021/03/20 00:43:45;;;;;;;7.35;6.65;;;;;;;;;;4956810;28;20189;-79
2021/03/20 00:46:12;;;;;;;8.75;7.90;;;;;;;;;;4973585;28;20213;-78
2021/03/20 00:48:39;;;;;;;9.25;7.05;;;;;;;;;;4972490;28;20199;-80
2021/03/20 00:51:06;;;;;;;7.40;6.70;;;;;;;;;;4973451;28;20685;-79
2021/03/20 00:53:32;;;;;;;9.07;7.38;;;;;;;;;;4973711;28;20187;-78
2021/03/20 00:55:59;;;;;;;7.60;6.82;;;;;;;;;;4975150;28;20205;-78
2021/03/20 00:58:25;;;;;;;7.50;6.55;;;;;;;;;;4977394;28;20182;-79
2021/03/20 01:00:52;;;;;;;10.03;7.80;;;;;;;;;;4977402;28;20258;-78
2021/03/20 01:03:18;;;;;;;9.68;8.27;;;;;;;;;;4977517;28;20423;-77
2021/03/20 01:05:44;;;;;;;7.93;7.13;;;;;;;;;;4976847;28;20289;-79
2021/03/20 01:08:10;;;;;;;9.63;8.40;;;;;;;;;;4977233;28;20179;-78
2021/03/20 01:10:36;;;;;;;9.80;7.55;;;;;;;;;;4976857;28;20298;-78
2021/03/20 01:13:03;;;;;;;7.53;6.65;;;;;;;;;;4976838;28;20197;-79
2021/03/20 01:15:29;;;;;;;11.63;8.60;;;;;;;;;;4976358;28;20204;-78
2021/03/20 01:17:55;;;;;;;7.95;7.20;;;;;;;;;;4976917;28;20178;-77
2021/03/20 01:20:21;;;;;;;8.10;7.30;;;;;;;;;;4977059;28;20184;-78
2021/03/20 01:22:47;;;;;;;9.40;8.20;;;;;;;;;;4976747;28;20268;-79
2021/03/20 01:25:13;;;;;;;9.83;8.17;;;;;;;;;;4976195;28;20340;-78
2021/03/20 01:27:39;;;;;;;10.10;8.07;;;;;;;;;;4976790;28;20412;-80
2021/03/20 01:30:07;;;;;;;10.88;8.82;;;;;;;;;;4976848;28;20200;-79
2021/03/20 01:32:33;;;;;;;10.15;8.32;;;;;;;;;;4976861;28;20536;-79
2021/03/20 01:34:59;;;;;;;9.00;7.70;;;;;;;;;;4975154;28;20557;-79
2021/03/20 01:37:25;;;;;;;11.10;7.78;;;;;;;;;;4975108;28;20189;-78
2021/03/20 01:39:51;;;;;;;10.60;8.20;;;;;;;;;;4975088;28;20179;-78
2021/03/20 01:42:17;;;;;;;10.53;8.10;;;;;;;;;;4976335;28;20183;-79
2021/03/20 01:44:44;;;;;;;8.85;8.05;;;;;;;;;;4976134;28;20496;-79
2021/03/20 01:47:14;;;;;;;10.43;8.30;;;;;;;;;;4976426;28;20265;-78
2021/03/20 01:49:42;;;;;;;9.43;8.20;;;;;;;;;;4976064;28;20188;-78
2021/03/20 01:52:17;;;;;;;11.70;8.23;;;;;;;;;;4975026;28;20230;-77
2021/03/20 01:54:55;;;;;;;14.98;8.88;;;;;;;;;;4974637;28;20647;-78
2021/03/20 01:57:26;;;;;;;9.00;8.10;;;;;;;;;;4975825;28;20175;-78
2021/03/20 01:59:53;;;;;;;8.95;8.05;;;;;;;;;;4975770;28;20178;-80
2021/03/20 02:02:19;;;;;;;8.70;7.75;;;;;;;;;;4975996;28;20188;-78
2021/03/20 02:04:45;;;;;;;12.73;9.43;;;;;;;;;;4974233;28;20659;-79
2021/03/20 02:07:11;;;;;;;13.07;8.75;;;;;;;;;;4974943;28;20180;-78
2021/03/20 02:09:37;;;;;;;9.63;8.27;;;;;;;;;;4975464;28;20182;-78
2021/03/20 02:12:06;;;;;;;9.63;8.05;;;;;;;;;;4975747;28;20596;-78
2021/03/20 02:14:40;;;;;;;12.38;8.80;;;;;;;;;;4975238;28;20252;-78
2021/03/20 02:17:10;;;;;;;10.27;8.75;;;;;;;;;;4975900;28;20222;-78
2021/03/20 02:19:54;;;;;;;10.30;7.80;;;;;;;;;;4975574;28;20172;-78
2021/03/20 02:22:23;;;;;;;16.65;8.85;;;;;;;;;;4974351;28;20581;-78
2021/03/20 02:25:01;;;;;;;10.30;8.50;;;;;;;;;;4975148;28;20184;-78
2021/03/20 02:27:30;;;;;;;11.02;7.95;;;;;;;;;;4975162;28;20191;-78
2021/03/20 02:29:59;;;;;;;10.05;9.00;;;;;;;;;;4975178;28;20205;-78
2021/03/20 02:32:25;;;;;;;10.13;8.75;;;;;;;;;;4975243;28;20204;-78
2021/03/20 02:34:51;;;;;;;11.47;9.40;;;;;;;;;;4974866;28;20599;-78
2021/03/20 02:37:22;;;;;;;10.37;8.77;;;;;;;;;;4974948;28;20431;-79
2021/03/20 02:39:54;;;;;;;12.35;8.75;;;;;;;;;;4975143;28;20411;-77
2021/03/20 02:42:29;;;;;;;12.45;8.30;;;;;;;;;;4975248;28;20540;-78
2021/03/20 02:44:59;;;;;;;16.38;10.20;;;;;;;;;;4974668;28;20202;-78
2021/03/20 02:47:30;;;;;;;11.55;10.02;;;;;;;;;;4975028;28;20260;-78
2021/03/20 02:50:02;;;;;;;12.25;9.27;;;;;;;;;;4974795;28;20248;-79
2021/03/20 02:52:34;;;;;;;10.77;8.73;;;;;;;;;;4973446;28;20184;-78
2021/03/20 02:55:18;;;;;;;15.48;10.25;;;;;;;;;;4973300;28;20200;-78
2021/03/20 02:58:04;;;;;;;14.27;10.30;;;;;;;;;;4974911;28;20255;-79
2021/03/20 03:00:41;;;;;;;9.65;8.40;;;;;;;;;;4975184;28;20180;-79
2021/03/20 03:03:08;;;;;;;10.50;8.20;;;;;;;;;;4974952;28;20198;-78
2021/03/20 03:05:39;;;;;;;12.50;9.43;;;;;;;;;;4973284;28;20211;-79
2021/03/20 03:08:09;;;;;;;10.43;9.32;;;;;;;;;;4974709;28;20524;-78
2021/03/20 03:10:37;;;;;;;10.90;8.98;;;;;;;;;;4974472;28;20210;-78
2021/03/20 03:13:09;;;;;;;10.40;9.30;;;;;;;;;;4974622;28;20515;-78
2021/03/20 03:15:36;;;;;;;9.43;8.43;;;;;;;;;;4974170;28;20262;-78
2021/03/20 03:18:05;;;;;;;11.43;8.23;;;;;;;;;;4973041;28;20183;-79
2021/03/20 03:20:35;;;;;;;10.05;7.90;;;;;;;;;;4974504;28;20462;-78
2021/03/20 03:23:07;;;;;;;12.75;9.48;;;;;;;;;;4974321;28;20172;-78
2021/03/20 03:25:35;;;;;;;12.40;9.57;;;;;;;;;;4973978;28;20196;-78
2021/03/20 03:28:03;;;;;;;12.75;9.02;;;;;;;;;;4974994;28;20265;-78
2021/03/20 03:30:29;;;;;;;11.85;9.20;;;;;;;;;;4974253;28;20544;-79
2021/03/20 03:32:58;;;;;;;14.10;9.45;;;;;;;;;;4974358;28;20180;-78
2021/03/20 03:35:37;;;;;;;9.52;8.13;;;;;;;;;;4973927;28;20682;-78
2021/03/20 03:38:15;;;;;;;10.77;8.05;;;;;;;;;;4974111;28;20180;-78
2021/03/20 03:40:57;;;;;;;10.15;7.50;;;;;;;;;;4974203;28;20183;-79
2021/03/20 03:43:23;;;;;;;12.70;7.53;;;;;;;;;;4977424;28;20190;-79
2021/03/20 03:45:50;;;;;;;10.82;7.60;;;;;;;;;;4976075;28;20206;-78
2021/03/20 03:48:17;;;;;;;8.15;7.10;;;;;;;;;;4973498;28;20204;-78
2021/03/20 03:50:45;;;;;;;11.07;6.95;;;;;;;;;;4974483;28;20626;-79
2021/03/20 03:53:11;;;;;;;7.47;6.57;;;;;;;;;;4974255;28;20177;-79
2021/03/20 03:55:38;;;;;;;6.70;6.00;;;;;;;;;;4973692;28;20732;-79
2021/03/20 03:58:07;;;;;;;8.98;6.90;;;;;;;;;;4974072;28;20177;-78
2021/03/20 04:00:45;;;;;;;7.70;5.93;;;;;;;;;;4973674;28;20181;-78
2021/03/20 04:03:29;;;;;;;8.82;5.82;;;;;;;;;;4973898;28;20582;-78
2021/03/20 04:06:14;;;;;;;8.23;6.40;;;;;;;;;;4972292;28;20258;-79
2021/03/20 04:08:40;;;;;;;9.43;6.50;;;;;;;;;;4972585;28;20183;-78
2021/03/20 04:11:12;;;;;;;7.05;5.57;;;;;;;;;;4972467;28;20200;-78
2021/03/20 04:13:49;;;;;;;7.15;5.90;;;;;;;;;;4973911;28;20172;-78
2021/03/20 04:16:16;;;;;;;6.97;6.05;;;;;;;;;;4973348;28;20203;-78
2021/03/20 04:18:52;;;;;;;7.10;5.93;;;;;;;;;;4972428;28;20188;-78
2021/03/20 04:21:18;;;;;;;7.75;5.55;;;;;;;;;;4973699;28;20179;-80
2021/03/20 04:23:52;;;;;;;8.88;6.38;;;;;;;;;;4972509;28;20191;-79
2021/03/20 04:26:23;;;;;;;8.32;6.57;;;;;;;;;;4973283;28;20258;-79
2021/03/20 04:28:49;;;;;;;8.70;6.60;;;;;;;;;;4973638;28;20173;-78
2021/03/20 04:31:27;;;;;;;7.77;6.40;;;;;;;;;;4974528;28;20310;-78
2021/03/20 04:33:53;;;;;;;10.70;7.35;;;;;;;;;;4977662;28;20415;-78
2021/03/20 04:36:23;;;;;;;12.82;6.63;;;;;;;;;;4977109;28;20208;-78
2021/03/20 04:38:49;;;;;;;8.50;5.88;;;;;;;;;;4977415;28;20183;-78
2021/03/20 04:41:16;;;;;;;10.73;6.72;;;;;;;;;;4977347;28;20179;-78
2021/03/20 04:43:42;;;;;;;8.52;5.90;;;;;;;;;;4977375;28;20271;-78
2021/03/20 04:46:08;;;;;;;8.75;6.72;;;;;;;;;;4975555;28;20255;-79
2021/03/20 04:48:39;;;;;;;7.10;6.33;;;;;;;;;;4975810;28;20699;-79
2021/03/20 04:51:24;;;;;;;5.38;4.88;;;;;;;;;;4975847;28;20510;-78
2021/03/20 04:53:51;;;;;;;10.15;6.22;;;;;;;;;;4977238;28;20224;-78
2021/03/20 04:56:20;;;;;;;7.45;5.82;;;;;;;;;;4975593;28;20538;-78
2021/03/20 04:58:46;;;;;;;9.40;7.07;;;;;;;;;;4976942;28;20270;-78
2021/03/20 05:01:23;;;;;;;8.20;5.57;;;;;;;;;;4976980;28;20280;-78
2021/03/20 05:03:58;;;;;;;7.28;5.63;;;;;;;;;;4975792;28;20457;-78
2021/03/20 05:06:26;;;;;;;6.18;4.78;;;;;;;;;;4975522;28;20230;-78
2021/03/20 05:08:58;;;;;;;5.85;5.13;;;;;;;;;;4975450;28;20190;-78
2021/03/20 05:11:27;;;;;;;13.93;6.25;;;;;;;;;;4975503;28;20693;-79
2021/03/20 05:13:58;;;;;;;6.47;5.35;;;;;;;;;;4976766;28;20672;-78
2021/03/20 05:16:28;;;;;;;7.68;5.95;;;;;;;;;;4976581;28;20198;-79
2021/03/20 05:18:54;;;;;;;6.93;5.38;;;;;;;;;;4976716;28;20533;-78
2021/03/20 05:21:22;;;;;;;8.25;6.05;;;;;;;;;;4976634;28;20184;-78
2021/03/20 05:23:49;;;;;;;7.80;5.53;;;;;;;;;;4976708;28;20191;-79
2021/03/20 05:26:15;;;;;;;9.00;6.05;;;;;;;;;;4974832;28;20214;-78
2021/03/20 05:28:41;;;;;;;7.20;5.32;;;;;;;;;;4975264;28;20331;-78
2021/03/20 05:31:07;;;;;;;6.70;5.40;;;;;;;;;;4975290;28;20703;-78
2021/03/20 05:33:34;;;;;;;10.57;5.93;;;;;;;;;;4976331;28;20184;-78
2021/03/20 05:36:00;;;;;;;7.57;6.28;;;;;;;;;;4976104;28;20579;-79
2021/03/20 05:38:26;;;;;;;8.48;5.40;;;;;;;;;;4975283;28;20649;-79
2021/03/20 05:41:01;;;;;;;6.80;6.20;;;;;;;;;;4976330;28;20184;-78
2021/03/20 05:43:39;;;;;;;8.48;6.38;;;;;;;;;;4974977;28;20183;-78
2021/03/20 05:46:23;;;;;;;6.82;5.47;;;;;;;;;;4975848;28;20206;-78
2021/03/20 05:49:03;;;;;;;6.45;5.63;;;;;;;;;;4976175;28;20259;-78
2021/03/20 05:51:29;;;;;;;8.10;6.40;;;;;;;;;;4974736;28;20216;-78
2021/03/20 05:53:55;;;;;;;6.70;5.63;;;;;;;;;;4974759;28;20176;-77
2021/03/20 05:56:33;;;;;;;7.80;4.93;;;;;;;;;;4975881;28;20446;-79
2021/03/20 05:59:05;;;;;;;6.65;5.28;;;;;;;;;;4976120;28;20742;-78
2021/03/20 06:01:36;;;;;;;7.45;6.20;;;;;;;;;;4975892;28;20184;-78
2021/03/20 06:04:05;;;;;;;6.90;5.60;;;;;;;;;;4975977;28;20172;-79
2021/03/20 06:06:31;;;;;;;11.25;5.82;;;;;;;;;;4975518;28;20205;-79
2021/03/20 06:09:13;;;;;;;6.50;5.67;;;;;;;;;;4975837;28;20188;-78
2021/03/20 06:12:02;;;;;;;6.30;5.15;;;;;;;;;;4975944;28;20828;-79
2021/03/20 06:14:28;;;;;;;6.95;5.38;;;;;;;;;;4975734;28;20175;-79
2021/03/20 06:17:03;;;;;;;7.07;5.67;;;;;;;;;;4975328;28;20662;-78
2021/03/20 06:19:48;;;;;;;13.23;6.20;;;;;;;;;;4974193;28;20458;-79
2021/03/20 06:22:25;;;;;;;8.57;6.03;;;;;;;;;;4975349;28;20258;-79
2021/03/20 06:25:09;;;;;;;7.50;5.45;;;;;;;;;;4975282;28;20291;-79
2021/03/20 06:27:38;;;;;;;7.43;5.35;;;;;;;;;;4975440;28;20176;-78
2021/03/20 06:30:19;;;;;;;10.57;5.93;;;;;;;;;;4975419;28;20200;-79
2021/03/20 06:32:47;;;;;;;6.45;5.15;;;;;;;;;;4975864;28;20183;-78
2021/03/20 06:35:16;;;;;;;6.78;5.20;;;;;;;;;;4974791;28;20188;-79
2021/03/20 06:37:53;;;;;;;7.65;5.15;;;;;;;;;;4973890;28;20215;-79
2021/03/20 06:40:22;;;;;;;6.15;4.78;;;;;;;;;;4975186;28;20176;-79
2021/03/20 06:42:49;;;;;;;10.27;5.18;;;;;;;;;;4975433;28;20212;-79
2021/03/20 06:45:25;;;;;;;6.55;5.07;;;;;;;;;;4972950;28;20288;-78
2021/03/20 06:47:54;;;;;;;5.40;4.00;;;;;;;;;;4972429;28;20202;-78
2021/03/20 06:50:24;;;;;;;6.03;4.55;;;;;;;;;;4975016;28;20616;-78
2021/03/20 06:52:51;;;;;;;6.25;3.90;;;;;;;;;;4974862;28;20172;-78
2021/03/20 06:55:31;;;;;;;6.05;4.28;;;;;;;;;;4974606;28;20216;-78
2021/03/20 06:57:58;;;;;;;5.38;3.70;;;;;;;;;;4975010;28;20169;-78
2021/03/20 07:00:28;;;;;;;6.15;4.75;;;;;;;;;;4974967;28;20176;-79
2021/03/20 07:02:57;;;;;;;9.18;4.20;;;;;;;;;;4974495;28;20184;-79
2021/03/20 07:05:26;;;;;;;6.57;4.05;;;;;;;;;;4974298;28;20578;-79
2021/03/20 07:08:31;;;;;;;6.07;3.60;;;;;;;;;;4974689;28;20247;-78
2021/03/20 07:10:57;;;;;;;6.97;3.80;;;;;;;;;;4972499;28;20223;-78
2021/03/20 07:13:27;;;;;;;5.32;3.95;;;;;;;;;;4972535;28;20269;-78
2021/03/20 07:16:13;;;;;;;6.10;4.13;;;;;;;;;;4972828;28;20208;-79
2021/03/20 07:18:49;;;;;;;5.88;4.25;;;;;;;;;;4974497;28;20169;-78
2021/03/20 07:21:20;;;;;;;6.28;4.10;;;;;;;;;;4974313;28;20259;-78
2021/03/20 07:23:59;;;;;;;6.40;3.88;;;;;;;;;;4974417;28;20187;-80
2021/03/20 07:26:25;;;;;;;7.38;3.35;;;;;;;;;;4972737;28;20294;-79
2021/03/20 07:28:52;;;;;;;5.00;3.78;;;;;;;;;;4974415;28;20658;-79
2021/03/20 07:31:19;;;;;;;4.88;3.25;;;;;;;;;;4974005;28;20200;-78
2021/03/20 07:33:49;;;;;;;7.38;3.50;;;;;;;;;;4973961;28;20172;-78
2021/03/20 07:36:35;;;;;;;7.47;4.65;;;;;;;;;;4973650;28;20594;-79
2021/03/20 07:39:12;;;;;;;4.35;3.30;;;;;;;;;;4974308;28;20168;-79
2021/03/20 07:41:50;;;;;;;6.85;3.60;;;;;;;;;;4973791;28;20703;-76
2021/03/20 07:44:16;;;;;;;6.03;3.88;;;;;;;;;;4974501;28;20180;-80
2021/03/20 07:46:42;;;;;;;4.25;3.22;;;;;;;;;;4972692;28;20604;-79
2021/03/20 07:49:26;;;;;;;4.93;3.72;;;;;;;;;;4973018;28;20612;-79
2021/03/20 07:52:00;;;;;;;8.23;3.35;;;;;;;;;;4973765;28;20643;-78
2021/03/20 07:54:30;;;;;;;8.25;3.80;;;;;;;;;;4973940;28;20231;-79
2021/03/20 07:57:05;;;;;;;5.18;3.50;;;;;;;;;;4973951;28;20185;-78
2021/03/20 07:59:32;;;;;;;3.60;3.08;;;;;;;;;;4973952;28;20207;-78
2021/03/20 08:01:59;;;;;;;5.65;4.18;;;;;;;;;;4956851;28;20236;-79
2021/03/20 08:04:44;;;;;;;6.82;3.95;;;;;;;;;;4971988;28;20182;-80
2021/03/20 08:07:10;;;;;;;5.20;3.35;;;;;;;;;;4972700;28;20253;-79
2021/03/20 08:09:36;;;;;;;5.55;4.20;;;;;;;;;;4973873;28;20197;-79
2021/03/20 08:12:02;;;;;;;5.90;4.78;;;;;;;;;;4972555;28;20288;-79
2021/03/20 08:14:38;;;;;;;10.20;5.43;;;;;;;;;;4972344;28;20179;-79
2021/03/20 08:17:05;;;;;;;7.47;3.85;;;;;;;;;;4971282;28;20808;-79
2021/03/20 08:19:32;;;;;;;6.75;5.53;;;;;;;;;;4973584;28;20210;-79
2021/03/20 08:22:10;;;;;;;7.80;5.05;;;;;;;;;;4970838;28;20284;-79
2021/03/20 08:24:55;;;;;;;7.05;5.57;;;;;;;;;;4972822;28;20183;-78
2021/03/20 08:27:21;;;;;;;8.90;4.95;;;;;;;;;;4970792;28;20192;-78
2021/03/20 08:29:56;;;;;;;3.53;3.10;;;;;;;;;;4971548;28;20271;-78
2021/03/20 08:32:34;;;;;;;6.95;4.40;;;;;;;;;;4973066;28;20180;-78
2021/03/20 08:35:00;;;;;;;10.05;4.43;;;;;;;;;;4972472;28;20197;-79
2021/03/20 08:37:29;;;;;;;6.20;4.90;;;;;;;;;;4972937;28;20194;-78
2021/03/20 08:39:55;;;;;;;10.45;7.38;;;;;;;;;;4972764;28;20217;-79
2021/03/20 08:42:21;;;;;;;11.48;7.35;;;;;;;;;;4972052;28;20206;-78
2021/03/20 08:45:03;;;;;;;7.15;5.07;;;;;;;;;;4971839;28;20201;-80
2021/03/20 08:47:38;;;;;;;5.80;4.07;;;;;;;;;;4970649;28;20182;-79
2021/03/20 08:50:04;;;;;;;11.15;8.02;;;;;;;;;;4971176;28;20568;-79
2021/03/20 08:52:41;;;;;;;8.23;4.55;;;;;;;;;;4971923;28;20656;-79
2021/03/20 08:55:14;;;;;;;6.07;5.00;;;;;;;;;;4973291;28;20196;-79
2021/03/20 08:57:55;;;;;;;5.03;4.47;;;;;;;;;;4973506;28;20176;-79
2021/03/20 09:00:21;;;;;;;4.20;3.58;;;;;;;;;;4973341;28;20173;-79
2021/03/20 09:02:48;;;;;;;5.47;3.73;;;;;;;;;;4972048;28;20601;-79
2021/03/20 09:05:22;;;;;;;4.80;4.20;;;;;;;;;;4973146;28;20801;-79
2021/03/20 09:07:54;;;;;;;6.60;4.13;;;;;;;;;;4973179;28;20196;-79
2021/03/20 09:10:22;;;;;;;6.25;4.00;;;;;;;;;;4973225;28;20732;-78
2021/03/20 09:12:53;;;;;;;3.42;3.13;;;;;;;;;;4973098;28;20180;-79
2021/03/20 09:15:26;;;;;;;3.92;3.53;;;;;;;;;;4972892;28;20193;-80
2021/03/20 09:17:52;;;;;;;6.38;3.67;;;;;;;;;;4976432;28;20171;-80
2021/03/20 09:20:30;;;;;;;4.68;3.58;;;;;;;;;;4976631;28;20231;-80
2021/03/20 09:22:58;;;;;;;4.70;2.85;;;;;;;;;;4976439;28;20184;-79
2021/03/20 09:25:29;;;;;;;6.05;3.33;;;;;;;;;;4975720;28;20212;-80
2021/03/20 09:27:59;;;;;;;4.22;3.45;;;;;;;;;;4971850;28;20223;-79
2021/03/20 09:30:34;;;;;;;7.13;3.53;;;;;;;;;;4975992;28;20207;-80
2021/03/20 09:33:02;;;;;;;4.05;3.08;;;;;;;;;;4975384;28;20179;-79
2021/03/20 09:35:48;;;;;;;4.72;3.38;;;;;;;;;;4973211;28;20226;-80
2021/03/20 09:38:34;;;;;;;7.80;4.20;;;;;;;;;;4975521;28;20200;-80
2021/03/20 09:41:01;;;;;;;3.50;3.20;;;;;;;;;;4975083;28;20557;-79
2021/03/20 09:43:27;;;;;;;3.37;2.93;;;;;;;;;;4976010;28;20184;-79
2021/03/20 09:46:12;;;;;;;3.97;3.60;;;;;;;;;;4976011;28;20788;-80
2021/03/20 09:48:42;;;;;;;4.13;3.00;;;;;;;;;;4976000;28;20447;-80
2021/03/20 09:51:26;;;;;;;6.87;3.90;;;;;;;;;;4974772;28;20469;-80
2021/03/20 09:53:52;;;;;;;7.63;3.07;;;;;;;;;;4976072;28;20798;-80
2021/03/20 09:56:29;;;;;;;6.33;3.27;;;;;;;;;;4976272;28;20463;-80
2021/03/20 09:58:57;;;;;;;3.70;3.13;;;;;;;;;;4976490;28;20403;-80
2021/03/20 10:01:42;;;;;;;7.10;3.73;;;;;;;;;;4976655;28;21327;-79
2021/03/20 10:04:15;;;;;;;5.23;3.60;;;;;;;;;;4976436;28;20492;-79
2021/03/20 10:06:41;;;;;;;4.93;3.00;;;;;;;;;;4975939;28;20432;-78
2021/03/20 10:09:07;;;;;;;4.60;2.73;;;;;;;;;;4977316;28;20407;-80
2021/03/20 10:11:33;;;;;;;3.87;2.80;;;;;;;;;;4978683;28;20457;-80
2021/03/20 10:13:59;;;;;;;7.77;3.60;;;;;;;;;;4978489;28;20482;-82
2021/03/20 10:16:27;;;;;;;4.43;3.00;;;;;;;;;;4976263;28;20483;-82
2021/03/20 10:18:58;;;;;;;4.40;2.57;;;;;;;;;;4975918;28;20423;-80
2021/03/20 10:21:26;;;;;;;3.30;3.00;;;;;;;;;;4976320;28;20908;-81
2021/03/20 10:23:55;;;;;;;4.03;2.77;;;;;;;;;;4975995;28;20787;-80
2021/03/20 10:26:27;;;;;;;6.97;3.60;;;;;;;;;;4975964;28;20633;-81
2021/03/20 10:28:55;;;;;;;3.10;2.80;;;;;;;;;;4975029;28;20514;-81
2021/03/20 10:31:21;;;;;;;3.47;2.77;;;;;;;;;;4974705;28;20460;-80
2021/03/20 10:33:48;;;;;;;2.83;2.40;;;;;;;;;;4974568;28;20431;-81
2021/03/20 10:36:17;;;;;;;3.87;2.93;;;;;;;;;;4975415;28;20447;-81
2021/03/20 10:38:43;;;;;;;3.60;2.50;;;;;;;;;;4974224;28;20419;-81
2021/03/20 10:41:16;;;;;;;6.83;2.97;;;;;;;;;;4973915;28;20447;-80
2021/03/20 10:43:44;;;;;;;4.00;2.50;;;;;;;;;;4975120;28;20420;-82
2021/03/20 10:46:22;;;;;;;8.30;2.70;;;;;;;;;;4974830;28;20431;-80
2021/03/20 10:48:49;;;;;;;4.83;2.70;;;;;;;;;;4975059;28;20407;-79
2021/03/20 10:51:16;;;;;;;6.10;2.47;;;;;;;;;;4974802;28;20474;-80
2021/03/20 10:53:44;;;;;;;3.10;2.60;;;;;;;;;;4974983;28;20419;-80
2021/03/20 10:56:26;;;;;;;2.28;2.00;;;;;;;;;;4974688;28;20474;-81
2021/03/20 10:58:52;;;;;;;3.30;2.47;;;;;;;;;;4974923;28;20226;-81
2021/03/20 11:01:29;;;;;;;4.13;2.67;;;;;;;;;;4974824;28;20545;-81
2021/03/20 11:03:55;;;;;;;3.65;2.25;;;;;;;;;;4974837;28;20578;-80
2021/03/20 11:06:22;;;;;;;5.37;2.90;;;;;;;;;;4973181;28;20208;-76
2021/03/20 11:08:49;;;;;;;2.45;1.73;;;;;;;;;;4974505;28;20827;-81
2021/03/20 11:11:30;;;;;;;2.50;1.90;;;;;;;;;;4974020;28;20779;-81
2021/03/20 11:14:03;;;;;;;3.70;2.35;;;;;;;;;;4973067;28;20234;-80
2021/03/20 11:16:29;;;;;;;2.87;2.30;;;;;;;;;;4974233;28;20255;-80
2021/03/20 11:18:57;;;;;;;2.87;2.57;;;;;;;;;;4974250;28;20411;-80
2021/03/20 11:21:25;;;;;;;4.18;3.25;;;;;;;;;;4963783;28;20780;-80
2021/03/20 11:24:03;;;;;;;5.85;3.20;;;;;;;;;;4966006;28;20184;-80
2021/03/20 11:26:37;;;;;;;4.90;2.90;;;;;;;;;;4963228;28;20571;-81
2021/03/20 11:29:05;;;;;;;2.88;2.40;;;;;;;;;;4963408;28;20267;-81
2021/03/20 11:31:36;;;;;;;5.00;3.38;;;;;;;;;;4973008;28;20235;-81
2021/03/20 11:34:02;;;;;;;5.78;3.05;;;;;;;;;;4974635;28;20207;-80
2021/03/20 11:36:28;;;;;;;5.93;2.40;;;;;;;;;;4971538;28;20250;-79
2021/03/20 11:38:56;;;;;;;3.47;2.33;;;;;;;;;;4972694;28;20601;-75
2021/03/20 11:41:36;;;;;;;6.55;3.35;;;;;;;;;;4973618;28;20176;-79
2021/03/20 11:44:06;;;;;;;3.88;2.70;;;;;;;;;;4968368;28;20270;-79
2021/03/20 11:46:34;;;;;;;5.57;3.65;;;;;;;;;;4954253;28;20236;-80
2021/03/20 11:49:21;;;;;;;6.93;2.92;;;;;;;;;;4968071;28;20200;-81
2021/03/20 11:51:48;;;;;;;7.32;2.55;;;;;;;;;;4953003;29;20215;-82
2021/03/20 11:54:23;;;;;;;3.00;2.03;;;;;;;;;;4953335;29;20181;-81
2021/03/20 11:56:53;;;;;;;3.38;2.30;;;;;;;;;;4952291;28;20242;-81
2021/03/20 11:59:39;;;;;;;3.50;2.20;;;;;;;;;;4953168;29;20268;-80
2021/03/20 12:02:06;;;;;;;3.90;2.35;;;;;;;;;;4953476;29;20259;-81
2021/03/20 12:04:33;;;;;;;4.22;2.55;;;;;;;;;;4966623;28;20283;-81
2021/03/20 12:07:18;;;;;;;4.85;2.30;;;;;;;;;;4953859;28;20239;-81
2021/03/20 12:09:44;;;;;;;4.53;2.33;;;;;;;;;;4952960;29;20184;-82
2021/03/20 12:12:10;;;;;;;4.47;2.30;;;;;;;;;;4967548;28;20630;-76
2021/03/20 12:14:38;;;;;;;3.50;2.60;;;;;;;;;;4952503;29;20181;-76
2021/03/20 12:17:10;;;;;;;3.00;2.13;;;;;;;;;;4953612;28;20542;-76
2021/03/20 12:19:54;;;;;;;4.40;2.55;;;;;;;;;;4967186;28;20723;-76
2021/03/20 12:22:29;;;;;;;3.10;2.17;;;;;;;;;;4953717;29;20177;-76
2021/03/20 12:25:00;;;;;;;2.20;1.90;;;;;;;;;;4954757;28;20239;-79
2021/03/20 12:27:34;;;;;;;2.45;1.92;;;;;;;;;;4955190;29;20169;-80
2021/03/20 12:30:06;;;;;;;3.37;1.90;;;;;;;;;;4969400;28;20552;-79
2021/03/20 12:32:37;;;;;;;3.60;2.10;;;;;;;;;;4955349;29;20504;-81
2021/03/20 12:35:21;;;;;;;4.60;2.47;;;;;;;;;;4955132;28;20428;-79
2021/03/20 12:38:03;;;;;;;1.80;1.65;;;;;;;;;;4955163;29;20427;-79
2021/03/20 12:40:30;;;;;;;3.07;1.60;;;;;;;;;;4955078;29;20168;-78
2021/03/20 12:42:59;;;;;;;3.75;1.83;;;;;;;;;;4955365;29;20405;-80
2021/03/20 12:45:26;;;;;;;2.85;2.15;;;;;;;;;;4954700;28;20195;-80
2021/03/20 12:47:52;;;;;;;2.60;1.80;;;;;;;;;;4954840;29;20180;-79
2021/03/20 12:50:18;;;;;;;3.90;1.87;;;;;;;;;;4954126;29;20536;-78
2021/03/20 12:52:44;;;;;;;1.70;1.60;;;;;;;;;;4956122;28;20424;-77
2021/03/20 12:55:11;;;;;;;2.77;1.53;;;;;;;;;;4940729;29;20428;-79
2021/03/20 12:57:37;;;;;;;2.50;2.00;;;;;;;;;;4958264;29;20516;-78
2021/03/20 13:00:11;;;;;;;3.50;2.30;;;;;;;;;;4958144;29;20417;-79
2021/03/20 13:02:38;;;;;;;2.30;2.00;;;;;;;;;;4958301;29;20404;-77
2021/03/20 13:05:05;;;;;;;4.20;2.60;;;;;;;;;;4958187;28;20424;-78
2021/03/20 13:07:31;;;;;;;5.47;1.87;;;;;;;;;;4973548;28;20440;-78
2021/03/20 13:09:57;;;;;;;3.10;2.47;;;;;;;;;;4957638;29;20846;-77
2021/03/20 13:12:23;;;;;;;2.90;2.03;;;;;;;;;;4957748;29;20516;-78
2021/03/20 13:14:50;;;;;;;2.40;1.90;;;;;;;;;;4957138;28;20421;-79
2021/03/20 13:17:16;;;;;;;3.73;2.20;;;;;;;;;;4957521;29;20413;-78
2021/03/20 13:19:42;;;;;;;5.53;2.20;;;;;;;;;;4957248;29;20415;-78
2021/03/20 13:22:09;;;;;;;3.70;2.20;;;;;;;;;;4957290;29;20415;-78
2021/03/20 13:24:35;;;;;;;3.30;2.43;;;;;;;;;;4956973;29;20702;-78
2021/03/20 13:27:01;;;;;;;4.68;2.83;;;;;;;;;;4956268;28;20440;-78
2021/03/20 13:29:27;;;;;;;4.63;2.53;;;;;;;;;;4957369;28;20297;-78
2021/03/20 13:31:53;;;;;;;5.88;3.08;;;;;;;;;;4957517;29;20215;-77
2021/03/20 13:34:20;;;;;;;3.73;1.93;;;;;;;;;;4957203;29;20177;-78
2021/03/20 13:36:46;;;;;;;3.33;2.80;;;;;;;;;;4956659;28;20530;-79
2021/03/20 13:39:13;;;;;;;3.00;2.70;;;;;;;;;;4957339;29;20582;-77
2021/03/20 13:41:39;;;;;;;6.10;2.20;;;;;;;;;;4958348;28;20419;-77
2021/03/20 13:44:06;;;;;;;3.53;2.00;;;;;;;;;;4973644;28;20434;-79
2021/03/20 13:46:32;;;;;;;6.30;3.43;;;;;;;;;;4974551;28;20790;-79
2021/03/20 13:48:58;;;;;;;13.67;9.03;;;;;;;;;;4974827;28;20770;-78
2021/03/20 13:51:24;;;;;;;5.50;3.20;;;;;;;;;;4974563;28;20465;-79
2021/03/20 13:53:50;;;;;;;9.03;2.90;;;;;;;;;;4974810;28;20412;-79
2021/03/20 13:56:16;;;;;;;5.40;2.80;;;;;;;;;;4973065;28;20974;-78
2021/03/20 13:58:42;;;;;;;5.23;2.60;;;;;;;;;;4974487;28;20471;-79
2021/03/20 14:01:09;;;;;;;4.30;2.60;;;;;;;;;;4974711;28;20904;-79
2021/03/20 14:03:36;;;;;;;5.27;2.90;;;;;;;;;;4972261;28;20431;-79
2021/03/20 14:06:02;;;;;;;4.00;2.40;;;;;;;;;;4971881;28;20428;-79
2021/03/20 14:08:29;;;;;;;4.80;3.47;;;;;;;;;;4974205;28;22132;-80
2021/03/20 14:10:57;;;;;;;3.60;2.27;;;;;;;;;;4973906;28;20967;-78
2021/03/20 14:13:23;;;;;;;5.07;3.30;;;;;;;;;;4975474;28;20430;-78
2021/03/20 14:15:50;;;;;;;4.23;2.40;;;;;;;;;;4975056;28;20409;-78
2021/03/20 14:18:18;;;;;;;4.80;1.97;;;;;;;;;;4975138;28;20981;-78
2021/03/20 14:20:45;;;;;;;6.53;2.72;;;;;;;;;;4975504;28;20423;-77
2021/03/20 14:23:12;;;;;;;6.07;2.43;;;;;;;;;;4975598;28;20202;-78
2021/03/20 14:25:39;;;;;;;4.63;2.80;;;;;;;;;;4975625;28;20554;-79
2021/03/20 14:28:05;;;;;;;4.67;2.83;;;;;;;;;;4974449;28;20560;-79
2021/03/20 14:30:39;;;;;;;3.50;2.70;;;;;;;;;;4975566;28;20450;-78
2021/03/20 14:33:05;;;;;;;3.30;2.70;;;;;;;;;;4974282;28;20508;-79
2021/03/20 14:35:32;;;;;;;3.33;2.63;;;;;;;;;;4974130;28;20576;-79
2021/03/20 14:37:58;;;;;;;4.37;2.57;;;;;;;;;;4975511;28;20519;-80
2021/03/20 14:40:26;;;;;;;3.37;1.90;;;;;;;;;;4974061;28;20427;-80
2021/03/20 14:42:52;;;;;;;2.60;2.07;;;;;;;;;;4975302;28;20422;-80
2021/03/20 14:45:19;;;;;;;2.77;1.90;;;;;;;;;;4974875;28;20442;-79
2021/03/20 14:47:45;;;;;;;4.03;2.13;;;;;;;;;;4974055;28;20466;-79
2021/03/20 14:50:14;;;;;;;3.10;2.00;;;;;;;;;;4974841;28;20427;-79
2021/03/20 14:52:41;;;;;;;3.73;2.67;;;;;;;;;;4973651;28;20948;-79
2021/03/20 14:55:07;;;;;;;3.73;2.40;;;;;;;;;;4973381;28;20858;-79
2021/03/20 14:57:33;;;;;;;6.03;2.57;;;;;;;;;;4975381;28;20430;-77
2021/03/20 14:59:59;;;;;;;2.90;2.33;;;;;;;;;;4975276;28;20448;-79